Irvington, AL (36544)

1:04 AM CDT on July 28, 2016 (GMT -0500)
Driftwood | | Change Station

Elev 89 ft 30.45 °N, 88.22 °W | Updated 1 minute ago

Clear
Clear
76.1 °F
Feels Like 76 °F
N
0.0
Wind Variable Wind from SW
Gusts 0.0 mph

Today
High -- | Low -- °F
--% Chance of Precip.
Yesterday
High -- | Low -- °F
Precip. -- in
Pressure 30.05 in
Visibility 10.0 miles
Clouds Clear
Heat Index 76 °F
Dew Point 74 °F
Humidity 94%
Rainfall 0.00 in
Snow Depth Not available.
6:08 AM 7:49 PM
Waning Crescent, 35% visible
METAR KBFM 280553Z AUTO 25003KT 10SM CLR 24/24 A3005 RMK AO2 SLP174 T02440239 10283 20239 403280233 50002
Pressure 30.05 in
Visibility 10.0 miles
Clouds Clear
Heat Index 76 °F
Dew Point 74 °F
Humidity 94%
Rainfall 0.00 in
Snow Depth Not available.
6:08 AM 7:49 PM
Waning Crescent, 35% visible
METAR KBFM 280553Z AUTO 25003KT 10SM CLR 24/24 A3005 RMK AO2 SLP174 T02440239 10283 20239 403280233 50002

10-Day Weather Forecast

Almanac

Astronomy

Jul. 28, 2016 Rise Set
Actual Time
Civil Twilight
Nautical Twilight
Astronomical Twilight
Moon
Length of Visible Light
Length of Day
Tomorrow will be .
, % of the Moon is Illuminated

Today's Extremes

State Highs State Lows

Community

WunderPhotos

Upload Photos

1,928,064 photos uploaded!

WunderBlog® & News

Nearby

Air Quality

  Air Quality AQ Index Pollutant
Not available.

Snow Depth

Station Depth Elevation

Earthquake Activity

City Distance Mag. Time & Date
Minimum magnitude displayed is 2.5.

Coastal Water Temperatures

Place Temperature

Stations

Nearby Weather Stations

Station Location Temp. Windchill Dew Point Humidity Wind Precip. Elev Updated Type
                   

Watches & Warnings

There are currently no watches in effect.